createdAt,value
2023-05-16T00:00:53.290Z,11.46
2023-05-16T00:03:20.443Z,11.52
2023-05-16T00:05:48.094Z,11.47
2023-05-16T00:08:14.612Z,11.41
2023-05-16T00:10:41.305Z,11.38
2023-05-16T00:13:07.818Z,11.51
2023-05-16T00:15:34.715Z,11.53
2023-05-16T00:18:01.345Z,11.60
2023-05-16T00:20:29.027Z,11.51
2023-05-16T00:22:55.982Z,11.52
2023-05-16T00:25:23.603Z,11.44
2023-05-16T00:27:50.154Z,11.49
2023-05-16T00:30:16.856Z,11.50
2023-05-16T00:32:43.874Z,11.54
2023-05-16T00:35:11.646Z,11.52
2023-05-16T00:37:38.771Z,11.36
2023-05-16T00:40:05.903Z,11.37
2023-05-16T00:42:32.409Z,11.38
2023-05-16T00:44:59.151Z,11.42
2023-05-16T00:47:25.849Z,11.36
2023-05-16T00:49:52.422Z,11.34
2023-05-16T00:52:18.963Z,11.43
2023-05-16T00:54:45.470Z,11.50
2023-05-16T00:57:12.089Z,11.53
2023-05-16T00:59:38.697Z,11.53
2023-05-16T01:02:05.417Z,11.54
2023-05-16T01:04:32.413Z,11.54
2023-05-16T01:06:58.921Z,11.61
2023-05-16T01:09:25.584Z,11.57
2023-05-16T01:11:59.760Z,11.57
2023-05-16T01:14:56.697Z,11.60
2023-05-16T01:17:57.851Z,11.64
2023-05-16T01:20:48.297Z,11.61
2023-05-16T01:23:17.947Z,11.62
2023-05-16T01:26:06.494Z,11.61
2023-05-16T01:28:33.136Z,11.64
2023-05-16T01:31:00.634Z,11.58
2023-05-16T01:33:27.358Z,11.59
2023-05-16T01:36:01.040Z,11.56
2023-05-16T01:38:31.630Z,11.64
2023-05-16T01:41:21.967Z,11.61
2023-05-16T01:43:49.896Z,11.69
2023-05-16T01:46:21.314Z,11.67
2023-05-16T01:48:53.517Z,11.65
2023-05-16T01:51:25.105Z,11.63
2023-05-16T01:53:52.523Z,11.65
2023-05-16T01:56:19.968Z,11.68
2023-05-16T01:58:48.361Z,11.67
2023-05-16T02:01:14.962Z,11.67
2023-05-16T02:03:41.631Z,11.65
2023-05-16T02:06:08.399Z,11.69
2023-05-16T02:08:35.121Z,11.57
2023-05-16T02:11:01.636Z,11.67
2023-05-16T02:13:28.082Z,11.66
2023-05-16T02:15:54.564Z,11.54
2023-05-16T02:18:23.518Z,11.65
2023-05-16T02:20:50.960Z,11.54
2023-05-16T02:23:17.468Z,11.53
2023-05-16T02:25:43.954Z,11.51
2023-05-16T02:28:10.714Z,11.66
2023-05-16T02:30:37.175Z,11.66
2023-05-16T02:33:03.697Z,11.62
2023-05-16T02:35:30.259Z,11.63
2023-05-16T02:37:57.111Z,11.65
2023-05-16T02:40:23.555Z,11.67
2023-05-16T02:42:50.007Z,11.54
2023-05-16T02:45:16.563Z,11.53
2023-05-16T02:47:43.116Z,11.45
2023-05-16T02:50:09.850Z,11.49
2023-05-16T02:52:36.404Z,11.47
2023-05-16T02:57:32.681Z,11.32
2023-05-16T02:59:59.342Z,11.34
2023-05-16T03:02:26.318Z,11.26
2023-05-16T03:04:52.928Z,11.17
2023-05-16T03:07:19.488Z,11.19
2023-05-16T03:09:46.003Z,11.21
2023-05-16T03:12:12.534Z,11.18
2023-05-16T03:14:39.034Z,11.18
2023-05-16T03:17:05.858Z,11.22
2023-05-16T03:19:32.333Z,11.22
2023-05-16T03:21:58.845Z,11.08
2023-05-16T03:24:25.325Z,11.12
2023-05-16T03:26:52.163Z,11.17
2023-05-16T03:29:18.746Z,11.16
2023-05-16T03:31:45.474Z,11.28
2023-05-16T03:34:12.085Z,11.22
2023-05-16T03:36:39.815Z,11.17
2023-05-16T03:39:06.326Z,11.18
2023-05-16T03:41:33.046Z,11.19
2023-05-16T03:43:59.517Z,11.15
2023-05-16T03:46:26.556Z,11.26
2023-05-16T03:48:53.150Z,11.32
2023-05-16T03:51:19.664Z,11.25
2023-05-16T03:53:46.235Z,11.33
2023-05-16T03:56:12.843Z,11.36
2023-05-16T03:58:39.292Z,11.32
2023-05-16T04:01:06.138Z,11.35
2023-05-16T04:03:33.601Z,11.30
2023-05-16T04:06:00.256Z,11.38
2023-05-16T04:08:26.909Z,11.43
2023-05-16T04:10:53.477Z,11.52
2023-05-16T04:13:20.086Z,11.24
2023-05-16T04:15:46.692Z,11.29
2023-05-16T04:18:13.506Z,11.48
2023-05-16T04:20:40.040Z,11.50
2023-05-16T04:23:06.524Z,11.52
2023-05-16T04:25:33.282Z,11.63
2023-05-16T04:27:59.740Z,11.64
2023-05-16T04:30:26.389Z,11.79
2023-05-16T04:32:52.923Z,11.92
2023-05-16T04:35:19.455Z,11.93
2023-05-16T04:37:45.978Z,12.01
2023-05-16T04:40:13.126Z,12.12
2023-05-16T04:42:39.660Z,12.24
2023-05-16T04:45:06.817Z,12.31
2023-05-16T04:47:33.672Z,12.36
2023-05-16T04:50:00.700Z,12.45
2023-05-16T04:52:27.240Z,12.38
2023-05-16T04:54:53.736Z,12.48
2023-05-16T04:57:20.244Z,12.41
2023-05-16T04:59:46.847Z,12.37
2023-05-16T05:02:13.417Z,12.58
2023-05-16T05:04:40.384Z,12.44
2023-05-16T05:07:07.301Z,12.54
2023-05-16T05:09:33.745Z,12.58
2023-05-16T05:12:00.217Z,12.53
2023-05-16T05:14:26.857Z,12.50
2023-05-16T05:16:53.386Z,12.54
2023-05-16T05:19:20.395Z,12.83
2023-05-16T05:21:46.919Z,13.09
2023-05-16T05:24:13.565Z,13.08
2023-05-16T05:26:40.064Z,13.43
2023-05-16T05:29:06.639Z,13.35
2023-05-16T05:31:36.314Z,13.25
2023-05-16T05:34:03.456Z,13.33
2023-05-16T05:36:30.900Z,13.30
2023-05-16T05:38:57.623Z,13.26
2023-05-16T05:41:24.164Z,13.13
2023-05-16T05:43:51.088Z,13.21
2023-05-16T05:46:17.646Z,13.20
2023-05-16T05:48:44.213Z,13.06
2023-05-16T05:51:11.056Z,12.90
2023-05-16T05:53:37.592Z,12.70
2023-05-16T05:56:04.180Z,12.66
2023-05-16T05:58:30.737Z,12.63
2023-05-16T06:00:57.260Z,12.63
2023-05-16T06:03:23.767Z,12.51
2023-05-16T06:05:50.751Z,12.68
2023-05-16T06:08:17.287Z,12.63
2023-05-16T06:10:43.783Z,12.61
2023-05-16T06:13:10.522Z,12.50
2023-05-16T06:15:37.209Z,12.36
2023-05-16T06:18:03.893Z,12.32
2023-05-16T06:20:30.507Z,12.35
2023-05-16T06:22:57.092Z,12.44
2023-05-16T06:25:23.618Z,12.32
2023-05-16T06:27:50.233Z,12.13
2023-05-16T06:30:16.776Z,12.15
2023-05-16T06:32:43.746Z,12.19
2023-05-16T06:35:10.531Z,12.22
2023-05-16T06:37:37.086Z,12.27
2023-05-16T06:40:03.796Z,12.40
2023-05-16T06:42:30.494Z,12.44
2023-05-16T06:44:56.994Z,12.42
2023-05-16T06:47:23.500Z,12.43
2023-05-16T06:49:50.910Z,12.33
2023-05-16T06:52:17.599Z,12.42
2023-05-16T06:54:44.218Z,12.40
2023-05-16T06:57:10.944Z,12.39
2023-05-16T06:59:37.428Z,12.43
2023-05-16T07:02:04.084Z,12.45
2023-05-16T07:04:30.614Z,12.47
2023-05-16T07:06:57.347Z,12.50
2023-05-16T07:09:23.880Z,12.54
2023-05-16T07:11:50.493Z,12.49
2023-05-16T07:14:17.029Z,12.49
2023-05-16T07:16:44.149Z,12.68
2023-05-16T07:19:10.812Z,12.72
2023-05-16T07:21:37.328Z,12.86
2023-05-16T07:24:04.159Z,13.21
2023-05-16T07:26:30.688Z,14.61
2023-05-16T07:28:58.101Z,15.80
2023-05-16T07:31:24.731Z,16.78
2023-05-16T07:33:51.467Z,16.77
2023-05-16T07:36:18.117Z,16.60
2023-05-16T07:38:45.120Z,15.45
2023-05-16T07:41:11.946Z,14.98
2023-05-16T07:43:38.522Z,15.43
2023-05-16T07:46:05.274Z,15.65
2023-05-16T07:48:31.903Z,14.58
2023-05-16T07:50:58.396Z,14.32
2023-05-16T07:53:24.942Z,14.22
2023-05-16T07:55:51.663Z,14.26
2023-05-16T07:58:18.253Z,14.27
2023-05-16T08:00:44.778Z,13.93
2023-05-16T08:03:11.481Z,13.60
2023-05-16T08:05:38.210Z,13.90
2023-05-16T08:08:04.867Z,13.92
2023-05-16T08:10:31.436Z,14.05
2023-05-16T08:12:57.968Z,13.98
2023-05-16T08:15:26.038Z,13.73
2023-05-16T08:17:54.843Z,13.77
2023-05-16T08:20:21.431Z,13.77
2023-05-16T08:22:48.098Z,13.94
2023-05-16T08:25:14.768Z,13.81
2023-05-16T08:27:41.405Z,14.00
2023-05-16T08:30:09.741Z,14.20
2023-05-16T08:32:37.338Z,14.22
2023-05-16T08:35:04.063Z,14.22
2023-05-16T08:37:30.743Z,14.35
2023-05-16T08:39:58.474Z,14.71
2023-05-16T08:42:25.034Z,15.36
2023-05-16T08:44:51.656Z,15.63
2023-05-16T08:47:19.347Z,15.62
2023-05-16T08:49:48.197Z,15.72
2023-05-16T08:52:19.043Z,15.89
2023-05-16T08:54:50.304Z,15.88
2023-05-16T08:57:22.050Z,15.47
2023-05-16T08:59:48.876Z,15.52
2023-05-16T09:02:15.717Z,15.41
2023-05-16T09:04:43.331Z,15.59
2023-05-16T09:07:09.949Z,15.18
2023-05-16T09:09:36.444Z,15.01
2023-05-16T09:12:03.149Z,14.80
2023-05-16T09:14:29.717Z,15.16
2023-05-16T09:17:06.786Z,15.67
2023-05-16T09:19:40.967Z,15.53
2023-05-16T09:22:10.617Z,15.65
2023-05-16T09:24:44.333Z,16.06
2023-05-16T09:27:12.646Z,16.27
2023-05-16T09:29:42.833Z,16.88
2023-05-16T09:32:14.440Z,16.16
2023-05-16T09:34:49.292Z,16.27
2023-05-16T09:37:16.383Z,15.98
2023-05-16T09:39:47.912Z,16.02
2023-05-16T09:42:15.746Z,15.86
2023-05-16T09:44:47.468Z,15.87
2023-05-16T09:47:16.578Z,15.66
2023-05-16T09:49:45.049Z,15.67
2023-05-16T09:52:12.033Z,15.46
2023-05-16T09:54:38.691Z,15.66
2023-05-16T09:57:05.369Z,15.82
2023-05-16T09:59:36.998Z,16.13
2023-05-16T10:02:05.495Z,15.82
2023-05-16T10:04:32.075Z,15.86
2023-05-16T10:06:59.336Z,15.50
2023-05-16T10:09:26.033Z,15.52
2023-05-16T10:11:53.674Z,15.36
2023-05-16T10:14:20.810Z,15.41
2023-05-16T10:16:51.144Z,15.57
2023-05-16T10:19:20.740Z,15.75
2023-05-16T10:21:52.678Z,16.11
2023-05-16T10:24:29.160Z,15.95
2023-05-16T10:26:55.758Z,15.97
2023-05-16T10:29:22.718Z,15.84
2023-05-16T10:31:49.318Z,15.82
2023-05-16T10:34:16.868Z,16.08
2023-05-16T10:36:44.656Z,16.18
2023-05-16T10:39:12.130Z,16.36
2023-05-16T10:41:39.063Z,16.17
2023-05-16T10:44:13.550Z,15.95
2023-05-16T10:46:40.236Z,16.28
2023-05-16T10:49:24.350Z,16.72
2023-05-16T10:52:13.364Z,16.86
2023-05-16T10:54:42.672Z,16.87
2023-05-16T10:57:17.706Z,16.83
2023-05-16T10:59:45.961Z,16.80
2023-05-16T11:02:24.698Z,17.08
2023-05-16T11:04:59.582Z,17.38
2023-05-16T11:07:31.046Z,17.10
2023-05-16T11:10:08.624Z,16.61
2023-05-16T11:12:46.037Z,16.53
2023-05-16T11:15:29.356Z,16.63
2023-05-16T11:18:09.329Z,16.27
2023-05-16T11:20:39.940Z,16.17
2023-05-16T11:23:22.414Z,16.11
2023-05-16T11:25:52.694Z,16.24
2023-05-16T11:28:20.099Z,16.30
2023-05-16T11:30:52.617Z,16.48
2023-05-16T11:33:19.629Z,16.97
2023-05-16T11:38:37.088Z,16.92
2023-05-16T11:41:07.997Z,16.97
2023-05-16T11:43:45.133Z,17.14
2023-05-16T11:46:16.237Z,17.41
2023-05-16T11:48:43.763Z,17.62
2023-05-16T11:51:10.826Z,17.46
2023-05-16T11:53:38.424Z,17.86
2023-05-16T11:56:07.238Z,17.85
2023-05-16T11:58:33.895Z,17.95
2023-05-16T12:01:00.430Z,18.03
2023-05-16T12:03:27.125Z,17.98
2023-05-16T12:05:55.386Z,18.59
2023-05-16T12:08:22.658Z,18.29
2023-05-16T12:10:50.521Z,18.86
2023-05-16T12:13:20.023Z,18.54
2023-05-16T12:15:47.899Z,18.27
2023-05-16T12:18:15.166Z,18.25
2023-05-16T12:20:43.092Z,18.07
2023-05-16T12:23:13.104Z,17.55
2023-05-16T12:25:46.310Z,17.37
2023-05-16T12:28:13.927Z,17.20
2023-05-16T12:30:42.912Z,17.43
2023-05-16T12:33:11.773Z,16.90
2023-05-16T12:35:39.929Z,17.24
2023-05-16T12:38:10.985Z,17.08
2023-05-16T12:40:39.579Z,17.38
2023-05-16T12:43:16.980Z,17.35
2023-05-16T12:45:52.898Z,17.89
2023-05-16T12:48:19.836Z,18.12
2023-05-16T12:50:46.664Z,17.69
2023-05-16T12:53:14.141Z,17.28
2023-05-16T12:55:41.347Z,17.50
2023-05-16T12:58:08.865Z,17.83
2023-05-16T13:00:36.634Z,17.85
2023-05-16T13:03:04.125Z,17.60
2023-05-16T13:05:30.824Z,17.51
2023-05-16T13:07:57.386Z,17.79
2023-05-16T13:10:26.040Z,17.97
2023-05-16T13:12:53.776Z,18.32
2023-05-16T13:15:20.383Z,18.58
2023-05-16T13:17:48.552Z,18.91
2023-05-16T13:20:15.582Z,18.71
2023-05-16T13:22:43.865Z,18.75
2023-05-16T13:25:11.035Z,18.62
2023-05-16T13:27:37.791Z,18.91
2023-05-16T13:30:04.936Z,19.58
2023-05-16T13:32:31.578Z,19.07
2023-05-16T13:34:58.143Z,19.12
2023-05-16T13:37:24.740Z,18.45
2023-05-16T13:39:52.659Z,18.81
2023-05-16T13:42:19.208Z,18.44
2023-05-16T13:44:45.881Z,18.66
2023-05-16T13:47:12.625Z,19.52
2023-05-16T13:49:39.670Z,20.09
2023-05-16T13:52:06.714Z,19.84
2023-05-16T13:54:33.666Z,19.61
2023-05-16T13:57:00.755Z,19.65
2023-05-16T13:59:44.700Z,19.76
2023-05-16T14:02:15.122Z,19.58
2023-05-16T14:04:41.732Z,20.06
2023-05-16T14:07:08.264Z,19.53
2023-05-16T14:09:35.283Z,19.28
2023-05-16T14:12:05.086Z,18.93
2023-05-16T14:14:31.970Z,18.84
2023-05-16T14:16:59.430Z,19.21
2023-05-16T14:19:28.780Z,19.11
2023-05-16T14:21:55.738Z,19.07
2023-05-16T14:24:22.714Z,19.27
2023-05-16T14:26:49.290Z,19.33
2023-05-16T14:29:15.825Z,19.56
2023-05-16T14:31:42.972Z,19.26
2023-05-16T14:34:09.941Z,19.09
2023-05-16T14:36:37.152Z,18.77
2023-05-16T14:39:04.058Z,19.12
2023-05-16T14:41:30.626Z,19.62
2023-05-16T14:43:57.185Z,19.98
2023-05-16T14:46:23.773Z,20.06
2023-05-16T14:48:51.105Z,19.97
2023-05-16T14:51:17.898Z,20.28
2023-05-16T14:53:46.784Z,19.84
2023-05-16T14:56:13.753Z,19.55
2023-05-16T14:58:40.686Z,19.24
2023-05-16T15:01:07.332Z,19.17
2023-05-16T15:03:46.747Z,19.46
2023-05-16T15:06:13.879Z,19.18
2023-05-16T15:08:40.659Z,19.36
2023-05-16T15:11:07.417Z,19.41
2023-05-16T15:13:34.094Z,19.58
2023-05-16T15:16:00.837Z,19.57
2023-05-16T15:18:27.391Z,19.88
2023-05-16T15:20:54.180Z,19.98
2023-05-16T15:23:20.876Z,19.95
2023-05-16T15:25:47.384Z,19.59
2023-05-16T15:28:13.861Z,19.32
2023-05-16T15:30:40.434Z,19.27
2023-05-16T15:33:07.017Z,19.31
2023-05-16T15:35:33.692Z,19.62
2023-05-16T15:38:00.233Z,19.31
2023-05-16T15:40:27.426Z,19.32
2023-05-16T15:42:54.069Z,19.22
2023-05-16T15:45:21.019Z,19.36
2023-05-16T15:47:47.717Z,19.37
2023-05-16T15:50:14.352Z,19.41
2023-05-16T15:52:41.087Z,19.44
2023-05-16T15:55:07.948Z,19.38
2023-05-16T15:57:34.809Z,19.64
2023-05-16T16:00:01.388Z,19.43
2023-05-16T16:02:27.994Z,19.07
2023-05-16T16:04:54.677Z,18.95
2023-05-16T16:07:21.272Z,18.70
2023-05-16T16:09:47.759Z,18.71
2023-05-16T16:12:14.292Z,18.90
2023-05-16T16:14:41.267Z,19.04
2023-05-16T16:17:07.788Z,18.79
2023-05-16T16:19:34.293Z,18.60
2023-05-16T16:22:00.802Z,18.56
2023-05-16T16:24:27.348Z,18.45
2023-05-16T16:26:53.874Z,18.60
2023-05-16T16:29:20.591Z,18.60
2023-05-16T16:31:47.336Z,18.21
2023-05-16T16:34:14.084Z,18.11
2023-05-16T16:36:40.961Z,18.24
2023-05-16T16:39:07.488Z,18.21
2023-05-16T16:41:34.013Z,18.39
2023-05-16T16:44:00.557Z,18.41
2023-05-16T16:46:27.396Z,18.43
2023-05-16T16:48:54.750Z,18.17
2023-05-16T16:51:21.498Z,17.98
2023-05-16T16:53:48.035Z,18.03
2023-05-16T16:56:14.556Z,18.12
2023-05-16T16:58:41.685Z,18.11
2023-05-16T17:01:08.235Z,17.90
2023-05-16T17:03:35.074Z,17.94
2023-05-16T17:06:01.670Z,18.06
2023-05-16T17:08:28.230Z,17.90
2023-05-16T17:10:54.801Z,17.88
2023-05-16T17:13:21.701Z,17.73
2023-05-16T17:15:48.181Z,17.78
2023-05-16T17:18:14.940Z,17.91
2023-05-16T17:20:41.505Z,17.81
2023-05-16T17:23:07.991Z,17.80
2023-05-16T17:25:34.613Z,17.72
2023-05-16T17:28:01.160Z,17.56
2023-05-16T17:30:27.631Z,17.61
2023-05-16T17:32:54.232Z,17.51
2023-05-16T17:35:20.851Z,17.68
2023-05-16T17:37:47.806Z,17.65
2023-05-16T17:40:17.142Z,17.70
2023-05-16T17:42:44.861Z,17.63
2023-05-16T17:45:12.977Z,17.54
2023-05-16T17:47:40.048Z,17.42
2023-05-16T17:50:09.548Z,17.32
2023-05-16T17:52:37.942Z,17.22
2023-05-16T17:55:05.813Z,17.17
2023-05-16T17:57:33.940Z,17.13
2023-05-16T18:00:00.807Z,17.05
2023-05-16T18:02:27.393Z,17.02
2023-05-16T18:04:53.966Z,17.04
2023-05-16T18:07:20.568Z,17.02
2023-05-16T18:09:47.111Z,16.99
2023-05-16T18:12:13.717Z,16.96
2023-05-16T18:14:40.750Z,16.83
2023-05-16T18:17:09.043Z,16.76
2023-05-16T18:19:36.006Z,16.78
2023-05-16T18:22:06.949Z,16.79
2023-05-16T18:24:34.555Z,16.78
2023-05-16T18:27:01.929Z,16.76
2023-05-16T18:29:28.457Z,16.70
2023-05-16T18:31:55.327Z,16.63
2023-05-16T18:34:21.846Z,16.50
2023-05-16T18:36:48.949Z,16.41
2023-05-16T18:39:15.626Z,16.37
2023-05-16T18:41:46.512Z,16.42
2023-05-16T18:44:13.342Z,16.38
2023-05-16T18:46:39.851Z,16.32
2023-05-16T18:49:06.427Z,16.30
2023-05-16T18:51:35.468Z,16.21
2023-05-16T18:54:04.993Z,16.13
2023-05-16T18:56:32.058Z,16.05
2023-05-16T18:58:58.631Z,16.05
2023-05-16T19:01:25.454Z,16.07
2023-05-16T19:03:52.144Z,15.97
2023-05-16T19:06:18.762Z,15.94
2023-05-16T19:08:47.999Z,15.90
2023-05-16T19:11:15.571Z,15.89
2023-05-16T19:13:42.170Z,15.93
2023-05-16T19:16:08.985Z,15.89
2023-05-16T19:18:35.862Z,15.93
2023-05-16T19:21:03.479Z,15.92
2023-05-16T19:23:30.600Z,15.96
2023-05-16T19:25:57.090Z,15.96
2023-05-16T19:28:24.723Z,15.94
2023-05-16T19:30:51.415Z,15.92
2023-05-16T19:33:18.329Z,15.86
2023-05-16T19:35:45.763Z,15.82
2023-05-16T19:38:12.388Z,15.85
2023-05-16T19:40:38.946Z,15.84
2023-05-16T19:43:05.746Z,15.88
2023-05-16T19:45:32.444Z,15.87
2023-05-16T19:47:59.096Z,15.82
2023-05-16T19:50:26.303Z,15.83
2023-05-16T19:52:53.076Z,15.81
2023-05-16T19:55:19.695Z,15.79
2023-05-16T19:57:46.715Z,15.77
2023-05-16T20:00:14.185Z,15.76
2023-05-16T20:02:42.950Z,15.73
2023-05-16T20:05:09.912Z,15.69
2023-05-16T20:07:36.607Z,15.64
2023-05-16T20:10:03.210Z,15.63
2023-05-16T20:12:29.685Z,15.56
2023-05-16T20:14:56.190Z,15.58
2023-05-16T20:17:22.711Z,15.53
2023-05-16T20:19:49.241Z,15.51
2023-05-16T20:22:15.885Z,15.46
2023-05-16T20:24:42.577Z,15.40
2023-05-16T20:27:09.081Z,15.33
2023-05-16T20:29:35.984Z,15.34
2023-05-16T20:32:03.972Z,15.35
2023-05-16T20:34:31.759Z,15.35
2023-05-16T20:36:58.514Z,15.31
2023-05-16T20:39:28.904Z,15.31
2023-05-16T20:41:55.559Z,15.34
2023-05-16T20:44:22.074Z,15.30
2023-05-16T20:46:48.603Z,15.25
2023-05-16T20:49:15.118Z,15.20
2023-05-16T20:51:42.564Z,15.20
2023-05-16T20:54:09.099Z,15.26
2023-05-16T20:56:35.754Z,15.27
2023-05-16T20:59:02.266Z,15.20
2023-05-16T21:01:29.326Z,15.17
2023-05-16T21:03:55.949Z,15.09
2023-05-16T21:06:22.706Z,15.02
2023-05-16T21:08:49.326Z,15.07
2023-05-16T21:11:15.828Z,15.06
2023-05-16T21:13:42.527Z,15.12
2023-05-16T21:16:09.175Z,15.07
2023-05-16T21:18:35.769Z,15.08
2023-05-16T21:21:02.394Z,15.04
2023-05-16T21:23:28.878Z,15.04
2023-05-16T21:25:55.431Z,14.99
2023-05-16T21:28:21.997Z,14.93
2023-05-16T21:30:48.636Z,14.91
2023-05-16T21:33:15.214Z,14.88
2023-05-16T21:35:41.791Z,14.93
2023-05-16T21:38:08.314Z,14.87
2023-05-16T21:40:34.823Z,14.86
2023-05-16T21:43:01.289Z,14.87
2023-05-16T21:45:28.174Z,14.81
2023-05-16T21:47:54.883Z,14.86
2023-05-16T21:50:21.680Z,14.85
2023-05-16T21:52:48.217Z,14.80
2023-05-16T21:55:15.300Z,14.80
2023-05-16T21:57:41.900Z,14.79
2023-05-16T22:00:09.818Z,14.74
2023-05-16T22:02:37.029Z,14.71
2023-05-16T22:05:04.306Z,14.57
2023-05-16T22:07:31.612Z,14.48
2023-05-16T22:09:59.310Z,14.50
2023-05-16T22:12:26.935Z,14.48
2023-05-16T22:14:53.700Z,14.45
2023-05-16T22:17:20.500Z,14.43
2023-05-16T22:19:47.088Z,14.56
2023-05-16T22:22:13.674Z,14.53
2023-05-16T22:24:40.350Z,14.54
2023-05-16T22:27:06.951Z,14.52
2023-05-16T22:29:38.248Z,14.49
2023-05-16T22:32:08.936Z,14.41
2023-05-16T22:34:36.358Z,14.36
2023-05-16T22:37:02.876Z,14.36
2023-05-16T22:39:29.416Z,14.34
2023-05-16T22:41:55.943Z,14.43
2023-05-16T22:44:22.486Z,14.46
2023-05-16T22:46:49.103Z,14.35
2023-05-16T22:49:16.290Z,14.40
2023-05-16T22:51:42.883Z,14.45
2023-05-16T22:54:09.567Z,14.40
2023-05-16T22:56:36.207Z,14.42
2023-05-16T22:59:02.685Z,14.47
2023-05-16T23:01:29.303Z,14.36
2023-05-16T23:03:56.009Z,14.36
2023-05-16T23:06:22.627Z,14.34
2023-05-16T23:08:49.162Z,14.19
2023-05-16T23:11:15.714Z,14.25
2023-05-16T23:13:42.257Z,14.21
2023-05-16T23:16:08.868Z,14.16
2023-05-16T23:18:35.753Z,14.14
2023-05-16T23:21:02.446Z,14.17
2023-05-16T23:23:29.120Z,14.03
2023-05-16T23:25:55.733Z,14.00
2023-05-16T23:28:22.558Z,13.91
2023-05-16T23:30:49.088Z,13.85
2023-05-16T23:33:15.703Z,13.77
2023-05-16T23:35:42.396Z,13.76
2023-05-16T23:38:09.070Z,13.76
2023-05-16T23:40:35.549Z,13.73
2023-05-16T23:43:02.039Z,13.69
2023-05-16T23:45:30.287Z,13.74
2023-05-16T23:47:56.999Z,13.74
2023-05-16T23:50:23.799Z,13.59
2023-05-16T23:52:50.408Z,13.48
2023-05-16T23:55:16.914Z,13.54
2023-05-16T23:57:43.592Z,13.52
